createdAt,value
2022-09-23T00:01:34.225Z,90.04
2022-09-23T00:04:01.909Z,89.84
2022-09-23T00:06:29.411Z,89.86
2022-09-23T00:08:57.333Z,90.14
2022-09-23T00:11:27.569Z,90.98
2022-09-23T00:13:58.635Z,91.12
2022-09-23T00:16:29.402Z,91.62
2022-09-23T00:18:59.300Z,91.73
2022-09-23T00:21:26.873Z,91.10
2022-09-23T00:23:54.567Z,91.69
2022-09-23T00:26:24.131Z,91.72
2022-09-23T00:28:52.038Z,92.26
2022-09-23T00:31:26.109Z,92.20
2022-09-23T00:33:59.705Z,92.65
2022-09-23T00:36:28.858Z,92.76
2022-09-23T00:38:56.736Z,92.64
2022-09-23T00:41:25.660Z,93.24
2022-09-23T00:43:58.808Z,93.13
2022-09-23T00:46:36.307Z,93.29
2022-09-23T00:49:27.085Z,93.21
2022-09-23T00:52:01.601Z,93.20
2022-09-23T00:54:32.913Z,93.66
2022-09-23T00:57:01.685Z,93.73
2022-09-23T00:59:29.872Z,94.04
2022-09-23T01:01:58.837Z,94.35
2022-09-23T01:04:29.210Z,94.13
2022-09-23T01:06:56.975Z,94.50
2022-09-23T01:09:25.746Z,94.90
2022-09-23T01:12:10.127Z,94.70
2022-09-23T01:14:56.149Z,94.64
2022-09-23T01:17:27.356Z,95.06
2022-09-23T01:20:13.821Z,95.19
2022-09-23T01:23:29.596Z,95.24
2022-09-23T01:26:16.134Z,95.54
2022-09-23T01:29:05.050Z,95.81
2022-09-23T01:31:42.925Z,96.15
2022-09-23T01:34:27.285Z,96.63
2022-09-23T01:37:05.593Z,96.77
2022-09-23T01:39:40.573Z,96.75
2022-09-23T01:42:22.150Z,97.15
2022-09-23T01:45:00.732Z,97.32
2022-09-23T01:47:31.517Z,96.99
2022-09-23T01:50:27.714Z,97.34
2022-09-23T01:52:59.094Z,97.22
2022-09-23T01:55:35.138Z,97.14
2022-09-23T01:58:09.459Z,97.20
2022-09-23T02:00:42.803Z,97.37
2022-09-23T02:03:22.134Z,97.24
2022-09-23T02:05:54.432Z,97.95
2022-09-23T02:08:24.622Z,97.76
2022-09-23T02:11:24.599Z,97.61
2022-09-23T02:14:00.521Z,97.52
2022-09-23T02:16:51.431Z,97.12
2022-09-23T02:19:27.175Z,97.66
2022-09-23T02:22:06.126Z,98.31
2022-09-23T02:24:39.921Z,98.40
2022-09-23T02:27:10.429Z,98.55
2022-09-23T02:30:02.586Z,98.84
2022-09-23T02:32:37.130Z,98.45
2022-09-23T02:35:13.425Z,98.35
2022-09-23T02:37:59.544Z,97.80
2022-09-23T02:40:38.852Z,98.45
2022-09-23T02:43:28.084Z,98.98
2022-09-23T02:45:56.403Z,99.16
2022-09-23T02:48:33.262Z,98.93
2022-09-23T02:51:03.653Z,99.19
2022-09-23T02:53:34.719Z,98.99
2022-09-23T02:56:03.446Z,99.05
2022-09-23T02:58:31.178Z,99.02
2022-09-23T03:01:32.654Z,99.04
2022-09-23T03:04:17.052Z,99.07
2022-09-23T03:06:59.957Z,99.21
2022-09-23T03:10:04.435Z,99.15
2022-09-23T03:12:52.932Z,99.24
2022-09-23T03:15:53.459Z,99.37
2022-09-23T03:18:44.751Z,99.27
2022-09-23T03:21:24.663Z,99.39
2022-09-23T03:23:54.661Z,99.28
2022-09-23T03:26:26.534Z,99.43
2022-09-23T03:28:54.942Z,99.13
2022-09-23T03:31:30.190Z,100.00
2022-09-23T03:34:01.302Z,100.00
2022-09-23T03:36:53.926Z,100.00
2022-09-23T03:39:33.459Z,100.00
2022-09-23T03:42:07.546Z,99.77
2022-09-23T03:44:39.703Z,99.62
2022-09-23T03:47:07.806Z,99.55
2022-09-23T03:49:40.306Z,99.84
2022-09-23T03:52:08.002Z,99.99
2022-09-23T03:54:40.077Z,100.00
2022-09-23T03:57:07.619Z,100.00
2022-09-23T03:59:37.981Z,100.00
2022-09-23T04:02:09.321Z,100.00
2022-09-23T04:04:41.122Z,100.00
2022-09-23T04:07:08.830Z,100.00
2022-09-23T04:09:36.855Z,100.00
2022-09-23T04:12:05.487Z,100.00
2022-09-23T04:14:32.995Z,100.00
2022-09-23T04:17:00.545Z,100.00
2022-09-23T04:19:29.675Z,100.00
2022-09-23T04:21:57.336Z,100.00
2022-09-23T04:24:25.079Z,100.00
2022-09-23T04:26:57.013Z,100.00
2022-09-23T04:29:25.538Z,100.00
2022-09-23T04:31:53.668Z,100.00
2022-09-23T04:34:23.600Z,100.00
2022-09-23T04:36:51.672Z,100.00
2022-09-23T04:39:19.482Z,100.00
2022-09-23T04:41:47.567Z,100.00
2022-09-23T04:44:16.062Z,100.00
2022-09-23T04:46:48.022Z,100.00
2022-09-23T04:49:18.993Z,100.00
2022-09-23T04:51:46.733Z,99.99
2022-09-23T04:54:17.666Z,100.00
2022-09-23T04:56:45.234Z,100.00
2022-09-23T04:59:15.692Z,100.00
2022-09-23T05:01:47.612Z,99.83
2022-09-23T05:04:15.363Z,99.63
2022-09-23T05:06:45.137Z,99.69
2022-09-23T05:09:17.998Z,99.71
2022-09-23T05:11:46.131Z,99.68
2022-09-23T05:14:13.808Z,99.71
2022-09-23T05:16:41.767Z,99.77
2022-09-23T05:19:09.338Z,99.75
2022-09-23T05:21:37.825Z,99.70
2022-09-23T05:24:05.686Z,100.00
2022-09-23T05:26:34.014Z,100.00
2022-09-23T05:29:02.897Z,100.00
2022-09-23T05:31:31.777Z,100.00
2022-09-23T05:34:02.112Z,100.00
2022-09-23T05:36:36.928Z,100.00
2022-09-23T05:39:05.918Z,100.00
2022-09-23T05:41:33.902Z,99.89
2022-09-23T05:44:01.768Z,99.93
2022-09-23T05:46:31.459Z,99.96
2022-09-23T05:49:02.855Z,99.76
2022-09-23T05:51:31.880Z,99.30
2022-09-23T05:54:02.867Z,98.18
2022-09-23T05:56:34.699Z,96.90
2022-09-23T05:59:03.359Z,97.03
2022-09-23T06:01:35.254Z,97.09
2022-09-23T06:04:04.612Z,96.55
2022-09-23T06:06:35.399Z,95.57
2022-09-23T06:09:03.657Z,95.24
2022-09-23T06:11:32.465Z,94.28
2022-09-23T06:14:02.226Z,93.87
2022-09-23T06:16:34.787Z,93.07
2022-09-23T06:19:06.326Z,91.99
2022-09-23T06:21:36.782Z,91.71
2022-09-23T06:24:04.814Z,90.92
2022-09-23T06:26:34.952Z,90.21
2022-09-23T06:29:06.735Z,88.72
2022-09-23T06:31:34.448Z,87.83
2022-09-23T06:34:10.800Z,86.96
2022-09-23T06:36:44.482Z,86.37
2022-09-23T06:39:13.349Z,85.62
2022-09-23T06:41:40.909Z,84.46
2022-09-23T06:44:08.596Z,82.50
2022-09-23T06:46:36.797Z,82.71
2022-09-23T06:49:04.493Z,81.64
2022-09-23T06:51:32.022Z,80.80
2022-09-23T06:53:59.666Z,80.55
2022-09-23T06:56:27.257Z,79.48
2022-09-23T06:58:55.947Z,79.16
2022-09-23T07:01:24.285Z,77.96
2022-09-23T07:03:52.079Z,77.12
2022-09-23T07:06:19.961Z,75.37
2022-09-23T07:08:48.461Z,75.26
2022-09-23T07:11:22.594Z,73.99
2022-09-23T07:13:52.378Z,72.97
2022-09-23T07:16:21.217Z,71.48
2022-09-23T07:18:48.827Z,68.01
2022-09-23T07:21:19.591Z,61.82
2022-09-23T07:23:50.095Z,62.16
2022-09-23T07:26:22.905Z,59.37
2022-09-23T07:28:56.409Z,53.08
2022-09-23T07:31:37.976Z,53.81
2022-09-23T07:34:08.495Z,51.97
2022-09-23T07:36:40.502Z,49.77
2022-09-23T07:39:11.225Z,48.36
2022-09-23T07:41:38.785Z,45.29
2022-09-23T07:44:06.914Z,47.12
2022-09-23T07:46:37.330Z,43.59
2022-09-23T07:49:06.240Z,45.58
2022-09-23T07:51:39.039Z,45.30
2022-09-23T07:54:10.615Z,44.69
2022-09-23T07:56:39.457Z,43.95
2022-09-23T07:59:11.124Z,43.38
2022-09-23T08:01:41.250Z,40.11
2022-09-23T08:04:29.759Z,40.67
2022-09-23T08:07:00.113Z,40.29
2022-09-23T08:09:35.718Z,39.37
2022-09-23T08:12:03.716Z,36.10
2022-09-23T08:14:31.306Z,38.77
2022-09-23T08:16:59.488Z,38.41
2022-09-23T08:19:27.192Z,37.72
2022-09-23T08:21:55.124Z,38.06
2022-09-23T08:24:24.182Z,36.54
2022-09-23T08:26:53.388Z,36.86
2022-09-23T08:29:29.761Z,36.77
2022-09-23T08:32:05.776Z,36.79
2022-09-23T08:34:34.384Z,35.11
2022-09-23T08:37:04.155Z,34.72
2022-09-23T08:39:31.713Z,34.37
2022-09-23T08:42:05.086Z,34.67
2022-09-23T08:44:47.738Z,32.98
2022-09-23T08:47:20.914Z,32.57
2022-09-23T08:50:06.634Z,34.22
2022-09-23T08:52:42.718Z,32.74
2022-09-23T08:55:21.172Z,33.87
2022-09-23T08:58:26.453Z,32.69
2022-09-23T09:01:02.466Z,33.07
2022-09-23T09:03:56.239Z,32.90
2022-09-23T09:06:36.195Z,35.09
2022-09-23T09:09:31.645Z,35.61
2022-09-23T09:12:19.478Z,36.37
2022-09-23T09:15:02.949Z,36.39
2022-09-23T09:17:45.820Z,36.70
2022-09-23T09:20:19.878Z,36.98
2022-09-23T09:22:57.691Z,36.82
2022-09-23T09:25:40.782Z,37.16
2022-09-23T09:28:18.970Z,37.47
2022-09-23T09:30:51.473Z,37.13
2022-09-23T09:33:27.592Z,38.12
2022-09-23T09:36:13.766Z,36.06
2022-09-23T09:38:41.321Z,36.35
2022-09-23T09:41:18.043Z,34.86
2022-09-23T09:43:52.576Z,34.47
2022-09-23T09:46:48.378Z,33.88
2022-09-23T09:49:42.243Z,35.12
2022-09-23T09:52:29.883Z,38.16
2022-09-23T09:55:29.621Z,37.22
2022-09-23T09:58:05.157Z,36.51
2022-09-23T10:00:32.630Z,35.17
2022-09-23T10:03:17.285Z,37.07
2022-09-23T10:05:44.889Z,36.99
2022-09-23T10:08:38.329Z,35.73
2022-09-23T10:11:12.207Z,35.78
2022-09-23T10:13:39.912Z,37.00
2022-09-23T10:16:07.819Z,39.02
2022-09-23T10:18:40.677Z,36.63
2022-09-23T10:21:12.663Z,36.82
2022-09-23T10:23:45.585Z,37.73
2022-09-23T10:26:16.847Z,40.74
2022-09-23T10:28:50.243Z,41.76
2022-09-23T10:31:25.810Z,42.72
2022-09-23T10:34:00.738Z,42.07
2022-09-23T10:36:40.139Z,41.72
2022-09-23T10:39:40.357Z,42.29
2022-09-23T10:42:44.671Z,44.20
2022-09-23T10:45:52.199Z,44.83
2022-09-23T10:48:35.906Z,45.57
2022-09-23T10:51:25.493Z,45.40
2022-09-23T10:54:18.568Z,45.98
2022-09-23T10:57:41.725Z,45.98
2022-09-23T11:00:28.878Z,45.36
2022-09-23T11:03:17.335Z,45.54
2022-09-23T11:06:05.901Z,46.02
2022-09-23T11:08:38.554Z,46.43
2022-09-23T11:11:23.167Z,47.76
2022-09-23T11:14:00.372Z,47.67
2022-09-23T11:16:46.369Z,47.52
2022-09-23T11:19:17.348Z,46.88
2022-09-23T11:22:09.380Z,44.98
2022-09-23T11:24:58.317Z,42.21
2022-09-23T11:27:41.987Z,40.10
2022-09-23T11:30:12.712Z,41.02
2022-09-23T11:32:48.192Z,40.54
2022-09-23T11:35:44.814Z,41.35
2022-09-23T11:38:25.227Z,40.47
2022-09-23T11:41:25.733Z,41.73
2022-09-23T11:44:40.242Z,43.08
2022-09-23T11:47:19.598Z,44.29
2022-09-23T11:50:06.673Z,45.56
2022-09-23T11:52:45.729Z,45.07
2022-09-23T11:55:25.345Z,46.16
2022-09-23T11:57:56.116Z,46.79
2022-09-23T12:00:32.896Z,47.24
2022-09-23T12:03:43.085Z,47.46
2022-09-23T12:06:47.225Z,48.21
2022-09-23T12:09:47.211Z,47.83
2022-09-23T12:12:51.893Z,47.10
2022-09-23T12:15:34.400Z,48.66
2022-09-23T12:18:37.144Z,48.28
2022-09-23T12:21:49.214Z,50.32
2022-09-23T12:24:27.627Z,49.52
2022-09-23T12:27:00.331Z,49.93
2022-09-23T12:29:33.001Z,50.65
2022-09-23T12:32:01.317Z,50.42
2022-09-23T12:34:41.599Z,50.48
2022-09-23T12:37:11.266Z,50.71
2022-09-23T12:39:47.652Z,50.80
2022-09-23T12:42:23.804Z,50.43
2022-09-23T12:44:53.371Z,46.83
2022-09-23T12:47:25.216Z,43.75
2022-09-23T12:49:53.984Z,41.36
2022-09-23T12:52:28.587Z,43.24
2022-09-23T12:55:22.041Z,44.60
2022-09-23T12:57:52.097Z,45.42
2022-09-23T13:00:30.947Z,46.19
2022-09-23T13:03:21.790Z,45.42
2022-09-23T13:06:10.557Z,44.47
2022-09-23T13:08:43.719Z,45.44
2022-09-23T13:11:28.913Z,44.97
2022-09-23T13:14:03.242Z,44.64
2022-09-23T13:16:37.044Z,43.20
2022-09-23T13:19:05.933Z,41.30
2022-09-23T13:21:48.436Z,41.49
2022-09-23T13:24:26.287Z,41.67
2022-09-23T13:26:58.567Z,42.89
2022-09-23T13:29:37.561Z,43.83
2022-09-23T13:32:15.788Z,44.17
2022-09-23T13:34:47.597Z,45.36
2022-09-23T13:37:22.520Z,45.88
2022-09-23T13:39:51.459Z,45.27
2022-09-23T13:42:28.151Z,44.42
2022-09-23T13:45:00.372Z,45.51
2022-09-23T13:47:32.011Z,45.31
2022-09-23T13:49:59.682Z,45.93
2022-09-23T13:52:30.950Z,45.23
2022-09-23T13:54:58.643Z,45.67
2022-09-23T13:57:30.349Z,46.69
2022-09-23T14:00:03.104Z,46.35
2022-09-23T14:02:32.923Z,46.77
2022-09-23T14:05:12.437Z,47.24
2022-09-23T14:07:41.484Z,48.13
2022-09-23T14:10:20.077Z,49.66
2022-09-23T14:12:52.426Z,49.41
2022-09-23T14:15:23.208Z,50.54
2022-09-23T14:18:05.383Z,51.28
2022-09-23T14:20:34.275Z,52.35
2022-09-23T14:23:14.706Z,52.83
2022-09-23T14:25:45.349Z,52.98
2022-09-23T14:28:18.494Z,53.39
2022-09-23T14:30:50.939Z,54.47
2022-09-23T14:33:33.213Z,55.37
2022-09-23T14:36:16.955Z,55.62
2022-09-23T14:38:52.826Z,56.01
2022-09-23T14:41:26.415Z,55.56
2022-09-23T14:44:02.108Z,56.41
2022-09-23T14:46:38.380Z,52.16
2022-09-23T14:49:11.647Z,51.15
2022-09-23T14:51:42.289Z,49.59
2022-09-23T14:54:57.575Z,48.60
2022-09-23T14:57:25.401Z,48.60
2022-09-23T15:00:00.189Z,47.99
2022-09-23T15:02:37.955Z,47.61
2022-09-23T15:05:18.348Z,48.77
2022-09-23T15:07:50.469Z,48.15
2022-09-23T15:10:27.978Z,46.36
2022-09-23T15:13:02.521Z,45.02
2022-09-23T15:15:30.331Z,45.59
2022-09-23T15:18:05.742Z,46.74
2022-09-23T15:20:34.259Z,45.98
2022-09-23T15:23:02.187Z,46.38
2022-09-23T15:25:32.548Z,47.23
2022-09-23T15:28:13.125Z,47.06
2022-09-23T15:30:41.952Z,48.43
2022-09-23T15:33:14.099Z,48.97
2022-09-23T15:35:47.665Z,49.25
2022-09-23T15:38:18.549Z,50.37
2022-09-23T15:40:46.183Z,49.49
2022-09-23T15:43:20.709Z,50.55
2022-09-23T15:45:55.842Z,50.86
2022-09-23T15:48:32.458Z,51.12
2022-09-23T15:51:04.982Z,52.19
2022-09-23T15:53:32.555Z,54.55
2022-09-23T15:56:06.273Z,53.84
2022-09-23T15:58:37.083Z,53.94
2022-09-23T16:01:04.927Z,53.75
2022-09-23T16:03:32.688Z,55.03
2022-09-23T16:06:03.204Z,55.36
2022-09-23T16:08:32.908Z,55.87
2022-09-23T16:11:02.109Z,56.03
2022-09-23T16:13:29.863Z,55.99
2022-09-23T16:15:57.718Z,56.64
2022-09-23T16:18:25.862Z,57.84
2022-09-23T16:20:54.243Z,58.39
2022-09-23T16:23:34.318Z,59.17
2022-09-23T16:26:08.360Z,59.49
2022-09-23T16:28:36.009Z,60.62
2022-09-23T16:31:03.505Z,61.17
2022-09-23T16:33:34.593Z,62.13
2022-09-23T16:36:02.612Z,64.45
2022-09-23T16:38:30.543Z,63.84
2022-09-23T16:41:00.865Z,65.11
2022-09-23T16:43:31.625Z,67.20
2022-09-23T16:45:59.674Z,67.95
2022-09-23T16:48:29.390Z,68.94
2022-09-23T16:51:01.482Z,70.14
2022-09-23T16:53:33.080Z,70.83
2022-09-23T16:56:07.230Z,71.69
2022-09-23T16:58:34.739Z,71.57
2022-09-23T17:01:20.544Z,71.70
2022-09-23T17:03:48.245Z,72.14
2022-09-23T17:06:20.550Z,72.69
2022-09-23T17:08:49.364Z,72.62
2022-09-23T17:11:17.161Z,72.97
2022-09-23T17:13:45.643Z,73.36
2022-09-23T17:16:25.912Z,73.87
2022-09-23T17:18:55.469Z,74.11
2022-09-23T17:21:27.826Z,74.63
2022-09-23T17:23:56.814Z,73.86
2022-09-23T17:26:26.521Z,73.35
2022-09-23T17:28:55.751Z,73.80
2022-09-23T17:31:25.690Z,73.57
2022-09-23T17:33:56.214Z,73.66
2022-09-23T17:36:23.747Z,73.78
2022-09-23T17:38:53.564Z,74.02
2022-09-23T17:41:21.719Z,74.07
2022-09-23T17:43:54.569Z,74.30
2022-09-23T17:46:22.165Z,74.20
2022-09-23T17:51:45.805Z,74.04
2022-09-23T17:54:14.995Z,74.57
2022-09-23T17:56:43.455Z,74.87
2022-09-23T17:59:12.763Z,74.06
2022-09-23T18:01:41.098Z,75.03
2022-09-23T18:04:10.959Z,74.57
2022-09-23T18:06:42.439Z,74.61
2022-09-23T18:09:10.501Z,74.72
2022-09-23T18:11:40.646Z,74.15
2022-09-23T18:14:22.492Z,74.61
2022-09-23T18:17:06.786Z,74.79
2022-09-23T18:19:36.741Z,74.85
2022-09-23T18:22:04.274Z,74.88
2022-09-23T18:24:33.429Z,75.40
2022-09-23T18:27:06.539Z,75.42
2022-09-23T18:29:34.889Z,75.10
2022-09-23T18:32:05.246Z,76.03
2022-09-23T18:34:35.378Z,75.69
2022-09-23T18:37:02.940Z,75.77
2022-09-23T18:39:32.919Z,76.46
2022-09-23T18:42:02.663Z,76.75
2022-09-23T18:44:31.197Z,76.72
2022-09-23T18:46:58.714Z,77.23
2022-09-23T18:49:46.205Z,77.86
2022-09-23T18:52:13.747Z,78.32
2022-09-23T18:54:42.564Z,77.97
2022-09-23T18:57:10.050Z,79.07
2022-09-23T18:59:40.020Z,79.17
2022-09-23T19:02:07.752Z,79.71
2022-09-23T19:04:37.846Z,79.93
2022-09-23T19:07:05.560Z,80.48
2022-09-23T19:09:33.491Z,80.52
2022-09-23T19:12:02.431Z,81.03
2022-09-23T19:14:31.064Z,81.28
2022-09-23T19:17:01.281Z,81.17
2022-09-23T19:19:30.408Z,82.40
2022-09-23T19:21:58.050Z,82.02
2022-09-23T19:24:25.976Z,81.72
2022-09-23T19:26:55.440Z,82.24
2022-09-23T19:29:25.584Z,82.70
2022-09-23T19:31:53.125Z,82.29
2022-09-23T19:34:24.719Z,83.70
2022-09-23T19:36:52.820Z,83.79
2022-09-23T19:39:22.918Z,84.34
2022-09-23T19:41:52.614Z,84.36
2022-09-23T19:44:20.288Z,84.81
2022-09-23T19:46:53.406Z,84.58
2022-09-23T19:49:25.091Z,85.25
2022-09-23T19:51:55.794Z,85.67
2022-09-23T19:54:26.533Z,85.93
2022-09-23T19:56:54.237Z,86.14
2022-09-23T19:59:26.387Z,86.43
2022-09-23T20:01:54.125Z,86.57
2022-09-23T20:04:33.300Z,87.38
2022-09-23T20:07:01.074Z,88.06
2022-09-23T20:09:29.031Z,87.27
2022-09-23T20:11:56.894Z,87.83
2022-09-23T20:14:24.584Z,87.56
2022-09-23T20:16:53.093Z,87.98
2022-09-23T20:19:23.044Z,88.45
2022-09-23T20:22:08.355Z,87.74
2022-09-23T20:24:36.573Z,87.67
2022-09-23T20:27:09.130Z,88.14
2022-09-23T20:29:37.303Z,88.35
2022-09-23T20:32:05.278Z,88.83
2022-09-23T20:34:33.634Z,89.36
2022-09-23T20:37:05.279Z,89.18
2022-09-23T20:39:35.055Z,89.31
2022-09-23T20:42:06.143Z,89.77
2022-09-23T20:44:33.733Z,90.29
2022-09-23T20:47:03.778Z,90.19
2022-09-23T20:49:32.723Z,89.78
2022-09-23T20:52:00.732Z,90.12
2022-09-23T20:54:29.724Z,90.00
2022-09-23T20:56:57.351Z,90.10
2022-09-23T20:59:27.805Z,89.99
2022-09-23T21:01:58.290Z,90.02
2022-09-23T21:04:28.507Z,90.80
2022-09-23T21:06:57.455Z,90.76
2022-09-23T21:09:27.583Z,90.90
2022-09-23T21:11:55.925Z,90.85
2022-09-23T21:14:23.978Z,91.19
2022-09-23T21:16:54.697Z,91.42
2022-09-23T21:19:22.660Z,91.43
2022-09-23T21:21:50.408Z,91.22
2022-09-23T21:25:21.443Z,91.63
2022-09-23T21:27:07.492Z,91.67
2022-09-23T21:29:34.985Z,92.07
2022-09-23T21:32:02.985Z,91.94
2022-09-23T21:34:33.083Z,91.82
2022-09-23T21:37:01.875Z,91.43
2022-09-23T21:39:29.419Z,91.10
2022-09-23T21:41:59.014Z,91.29
2022-09-23T21:44:28.923Z,91.46
2022-09-23T21:46:58.192Z,91.38
2022-09-23T21:49:25.904Z,91.44
2022-09-23T21:51:58.833Z,91.46
2022-09-23T21:54:29.625Z,91.65
2022-09-23T21:56:57.154Z,91.33
2022-09-23T21:59:26.963Z,91.13
2022-09-23T22:01:56.075Z,91.17
2022-09-23T22:04:23.638Z,92.08
2022-09-23T22:06:53.970Z,91.66
2022-09-23T22:09:22.740Z,91.48
2022-09-23T22:12:11.190Z,91.02
2022-09-23T22:14:39.363Z,91.17
2022-09-23T22:17:10.554Z,91.29
2022-09-23T22:19:44.214Z,91.74
2022-09-23T22:22:15.547Z,92.39
2022-09-23T22:24:44.283Z,91.97
2022-09-23T22:27:13.701Z,91.64
2022-09-23T22:29:59.071Z,92.18
2022-09-23T22:32:43.966Z,92.13
2022-09-23T22:35:24.850Z,92.16
2022-09-23T22:37:53.405Z,92.54
2022-09-23T22:40:21.196Z,92.83
2022-09-23T22:42:49.732Z,93.07
2022-09-23T22:45:17.521Z,92.85
2022-09-23T22:47:46.037Z,92.84
2022-09-23T22:50:15.632Z,92.98
2022-09-23T22:52:43.476Z,93.21
2022-09-23T22:55:11.553Z,93.03
2022-09-23T22:57:39.147Z,93.15
2022-09-23T23:00:08.243Z,93.32
2022-09-23T23:02:37.175Z,93.16
2022-09-23T23:05:05.259Z,92.74
2022-09-23T23:07:35.064Z,92.70
2022-09-23T23:10:07.282Z,93.00
2022-09-23T23:12:34.793Z,92.99
2022-09-23T23:15:02.306Z,93.18
2022-09-23T23:17:29.981Z,92.96
2022-09-23T23:19:59.916Z,93.16
2022-09-23T23:22:29.251Z,93.36
2022-09-23T23:24:56.888Z,93.58
2022-09-23T23:27:24.385Z,93.81
2022-09-23T23:29:51.888Z,94.04
2022-09-23T23:32:19.377Z,93.95
2022-09-23T23:34:46.901Z,94.40
2022-09-23T23:37:20.776Z,94.48
2022-09-23T23:39:48.839Z,94.56
2022-09-23T23:42:18.983Z,94.79
2022-09-23T23:44:46.507Z,94.81
2022-09-23T23:47:14.001Z,95.17
2022-09-23T23:49:42.571Z,95.18
2022-09-23T23:52:12.326Z,95.19
2022-09-23T23:54:40.112Z,94.98
2022-09-23T23:57:07.691Z,94.80
2022-09-23T23:59:35.350Z,94.77
